sensor_id;sensor_type;location;lat;lon;timestamp;P1;P2;P0
76784;PMS7003;66893;44.316;0.092;2023-06-22T00:00:29;9.25;7.75;7.00
76784;PMS7003;66893;44.316;0.092;2023-06-22T00:02:54;13.50;9.25;6.50
76784;PMS7003;66893;44.316;0.092;2023-06-22T00:05:20;9.00;8.25;6.25
76784;PMS7003;66893;44.316;0.092;2023-06-22T00:07:45;11.50;10.00;8.00
76784;PMS7003;66893;44.316;0.092;2023-06-22T00:10:11;8.50;8.50;6.25
76784;PMS7003;66893;44.316;0.092;2023-06-22T00:12:36;9.50;8.75;6.00
76784;PMS7003;66893;44.316;0.092;2023-06-22T00:15:02;10.00;8.25;6.25
76784;PMS7003;66893;44.316;0.092;2023-06-22T00:17:28;8.00;6.00;4.00
76784;PMS7003;66893;44.316;0.092;2023-06-22T00:19:54;9.00;8.50;6.00
76784;PMS7003;66893;44.316;0.092;2023-06-22T00:22:20;11.00;6.25;5.25
76784;PMS7003;66893;44.316;0.092;2023-06-22T00:24:53;9.50;9.00;5.50
76784;PMS7003;66893;44.316;0.092;2023-06-22T00:27:20;9.75;8.25;7.00
76784;PMS7003;66893;44.316;0.092;2023-06-22T00:29:45;10.25;9.00;7.00
76784;PMS7003;66893;44.316;0.092;2023-06-22T00:32:11;11.25;9.75;6.00
76784;PMS7003;66893;44.316;0.092;2023-06-22T00:34:36;13.75;10.75;8.00
76784;PMS7003;66893;44.316;0.092;2023-06-22T00:37:02;9.00;8.50;5.75
76784;PMS7003;66893;44.316;0.092;2023-06-22T00:39:27;9.50;9.25;7.75
76784;PMS7003;66893;44.316;0.092;2023-06-22T00:41:53;11.75;11.75;8.00
76784;PMS7003;66893;44.316;0.092;2023-06-22T00:44:18;5.50;5.00;3.25
76784;PMS7003;66893;44.316;0.092;2023-06-22T00:46:43;8.00;8.00;6.00
76784;PMS7003;66893;44.316;0.092;2023-06-22T00:49:09;12.50;7.50;5.75
76784;PMS7003;66893;44.316;0.092;2023-06-22T00:51:35;10.00;10.00;7.00
76784;PMS7003;66893;44.316;0.092;2023-06-22T00:54:03;11.00;7.50;6.75
76784;PMS7003;66893;44.316;0.092;2023-06-22T00:56:30;9.25;9.25;6.00
76784;PMS7003;66893;44.316;0.092;2023-06-22T00:58:57;8.25;8.00;5.75
76784;PMS7003;66893;44.316;0.092;2023-06-22T01:01:24;6.25;6.25;5.00
76784;PMS7003;66893;44.316;0.092;2023-06-22T01:03:50;8.50;7.75;5.25
76784;PMS7003;66893;44.316;0.092;2023-06-22T01:06:26;7.75;6.00;4.00
76784;PMS7003;66893;44.316;0.092;2023-06-22T01:09:15;7.00;7.00;5.00
76784;PMS7003;66893;44.316;0.092;2023-06-22T01:11:53;6.00;5.50;5.00
76784;PMS7003;66893;44.316;0.092;2023-06-22T01:14:23;5.25;5.00;4.00
76784;PMS7003;66893;44.316;0.092;2023-06-22T01:16:56;5.50;5.50;4.50
76784;PMS7003;66893;44.316;0.092;2023-06-22T01:22:14;5.25;5.25;4.00
76784;PMS7003;66893;44.316;0.092;2023-06-22T01:24:48;6.50;5.00;4.00
76784;PMS7003;66893;44.316;0.092;2023-06-22T01:27:53;6.50;5.00;4.00
76784;PMS7003;66893;44.316;0.092;2023-06-22T01:30:26;3.00;3.00;2.00
76784;PMS7003;66893;44.316;0.092;2023-06-22T01:32:54;6.50;6.00;4.50
76784;PMS7003;66893;44.316;0.092;2023-06-22T01:35:21;7.50;6.25;5.00
76784;PMS7003;66893;44.316;0.092;2023-06-22T01:37:48;6.75;6.00;4.50
76784;PMS7003;66893;44.316;0.092;2023-06-22T01:40:17;6.75;5.75;4.50
76784;PMS7003;66893;44.316;0.092;2023-06-22T01:42:47;10.25;5.75;4.00
76784;PMS7003;66893;44.316;0.092;2023-06-22T01:45:13;7.75;7.50;6.00
76784;PMS7003;66893;44.316;0.092;2023-06-22T01:47:40;5.25;5.25;4.75
76784;PMS7003;66893;44.316;0.092;2023-06-22T01:50:06;7.25;7.00;6.00
76784;PMS7003;66893;44.316;0.092;2023-06-22T01:52:33;6.25;6.25;5.00
76784;PMS7003;66893;44.316;0.092;2023-06-22T01:54:59;7.75;7.50;6.00
76784;PMS7003;66893;44.316;0.092;2023-06-22T01:57:26;7.00;7.00;5.75
76784;PMS7003;66893;44.316;0.092;2023-06-22T02:00:02;8.75;7.25;5.25
76784;PMS7003;66893;44.316;0.092;2023-06-22T02:02:39;7.75;7.75;5.75
76784;PMS7003;66893;44.316;0.092;2023-06-22T02:05:18;6.00;5.50;4.25
76784;PMS7003;66893;44.316;0.092;2023-06-22T02:07:56;6.75;6.25;5.25
76784;PMS7003;66893;44.316;0.092;2023-06-22T02:10:30;3.75;3.75;3.00
76784;PMS7003;66893;44.316;0.092;2023-06-22T02:12:57;7.00;5.50;4.25
76784;PMS7003;66893;44.316;0.092;2023-06-22T02:15:25;7.00;6.00;4.25
76784;PMS7003;66893;44.316;0.092;2023-06-22T02:17:51;5.25;5.00;4.00
76784;PMS7003;66893;44.316;0.092;2023-06-22T02:20:16;4.50;4.25;3.50
76784;PMS7003;66893;44.316;0.092;2023-06-22T02:22:43;5.00;4.00;3.00
76784;PMS7003;66893;44.316;0.092;2023-06-22T02:25:08;4.25;2.50;2.00
76784;PMS7003;66893;44.316;0.092;2023-06-22T02:27:34;4.00;4.00;3.25
76784;PMS7003;66893;44.316;0.092;2023-06-22T02:30:00;5.00;3.75;3.00
76784;PMS7003;66893;44.316;0.092;2023-06-22T02:32:25;3.50;3.50;3.25
76784;PMS7003;66893;44.316;0.092;2023-06-22T02:34:52;4.50;4.50;3.00
76784;PMS7003;66893;44.316;0.092;2023-06-22T02:37:17;4.75;3.50;2.75
76784;PMS7003;66893;44.316;0.092;2023-06-22T02:39:43;4.00;3.00;2.00
76784;PMS7003;66893;44.316;0.092;2023-06-22T02:42:09;4.25;3.00;3.00
76784;PMS7003;66893;44.316;0.092;2023-06-22T02:44:35;4.00;4.00;3.25
76784;PMS7003;66893;44.316;0.092;2023-06-22T02:47:01;3.75;3.75;3.00
76784;PMS7003;66893;44.316;0.092;2023-06-22T02:49:27;3.25;3.25;3.00
76784;PMS7003;66893;44.316;0.092;2023-06-22T02:51:52;4.00;4.00;2.25
76784;PMS7003;66893;44.316;0.092;2023-06-22T02:54:18;4.00;3.50;3.00
76784;PMS7003;66893;44.316;0.092;2023-06-22T02:56:43;3.00;3.00;2.50
76784;PMS7003;66893;44.316;0.092;2023-06-22T02:59:09;3.25;3.25;2.75
76784;PMS7003;66893;44.316;0.092;2023-06-22T03:01:36;4.00;2.50;2.00
76784;PMS7003;66893;44.316;0.092;2023-06-22T03:04:08;3.25;2.50;2.00
76784;PMS7003;66893;44.316;0.092;2023-06-22T03:06:34;3.75;2.75;2.25
76784;PMS7003;66893;44.316;0.092;2023-06-22T03:09:01;3.00;3.00;2.25
76784;PMS7003;66893;44.316;0.092;2023-06-22T03:11:29;3.00;3.00;2.50
76784;PMS7003;66893;44.316;0.092;2023-06-22T03:13:55;3.50;3.50;2.25
76784;PMS7003;66893;44.316;0.092;2023-06-22T03:16:21;2.00;1.50;1.00
76784;PMS7003;66893;44.316;0.092;2023-06-22T03:18:46;1.50;1.25;1.00
76784;PMS7003;66893;44.316;0.092;2023-06-22T03:21:12;2.00;2.00;1.00
76784;PMS7003;66893;44.316;0.092;2023-06-22T03:23:37;2.50;2.50;2.25
76784;PMS7003;66893;44.316;0.092;2023-06-22T03:26:03;2.25;2.00;2.00
76784;PMS7003;66893;44.316;0.092;2023-06-22T03:28:29;4.75;3.00;2.00
76784;PMS7003;66893;44.316;0.092;2023-06-22T03:30:56;3.25;2.00;1.25
76784;PMS7003;66893;44.316;0.092;2023-06-22T03:33:22;2.00;2.00;2.00
76784;PMS7003;66893;44.316;0.092;2023-06-22T03:35:48;2.75;2.00;2.00
76784;PMS7003;66893;44.316;0.092;2023-06-22T03:38:14;1.00;1.00;1.00
76784;PMS7003;66893;44.316;0.092;2023-06-22T03:40:41;2.00;2.00;2.00
76784;PMS7003;66893;44.316;0.092;2023-06-22T03:43:06;3.00;3.00;2.00
76784;PMS7003;66893;44.316;0.092;2023-06-22T03:45:31;2.00;2.00;1.00
76784;PMS7003;66893;44.316;0.092;2023-06-22T03:47:57;1.75;1.75;1.25
76784;PMS7003;66893;44.316;0.092;2023-06-22T03:50:22;2.25;2.25;2.00
76784;PMS7003;66893;44.316;0.092;2023-06-22T03:52:48;2.25;2.25;1.25
76784;PMS7003;66893;44.316;0.092;2023-06-22T03:55:13;2.00;2.00;2.00
76784;PMS7003;66893;44.316;0.092;2023-06-22T03:57:39;4.00;2.50;1.50
76784;PMS7003;66893;44.316;0.092;2023-06-22T04:00:04;6.00;3.00;2.75
76784;PMS7003;66893;44.316;0.092;2023-06-22T04:02:31;2.00;2.00;2.00
76784;PMS7003;66893;44.316;0.092;2023-06-22T04:04:56;4.00;2.00;1.00
76784;PMS7003;66893;44.316;0.092;2023-06-22T04:07:21;3.00;2.25;2.00
76784;PMS7003;66893;44.316;0.092;2023-06-22T04:09:47;3.25;2.00;1.00
76784;PMS7003;66893;44.316;0.092;2023-06-22T04:12:13;5.25;3.00;1.00
76784;PMS7003;66893;44.316;0.092;2023-06-22T04:14:38;2.75;1.50;1.25
76784;PMS7003;66893;44.316;0.092;2023-06-22T04:17:04;2.25;1.50;1.00
76784;PMS7003;66893;44.316;0.092;2023-06-22T04:19:29;3.25;3.25;3.00
76784;PMS7003;66893;44.316;0.092;2023-06-22T04:21:55;3.00;2.00;1.75
76784;PMS7003;66893;44.316;0.092;2023-06-22T04:24:20;3.25;2.25;1.75
76784;PMS7003;66893;44.316;0.092;2023-06-22T04:26:46;2.50;1.50;1.00
76784;PMS7003;66893;44.316;0.092;2023-06-22T04:29:12;7.25;3.00;2.75
76784;PMS7003;66893;44.316;0.092;2023-06-22T04:31:38;2.75;2.75;2.00
76784;PMS7003;66893;44.316;0.092;2023-06-22T04:34:04;1.25;1.25;1.00
76784;PMS7003;66893;44.316;0.092;2023-06-22T04:36:34;2.00;2.00;1.00
76784;PMS7003;66893;44.316;0.092;2023-06-22T04:39:07;2.00;2.00;1.50
76784;PMS7003;66893;44.316;0.092;2023-06-22T04:41:35;2.00;2.00;2.00
76784;PMS7003;66893;44.316;0.092;2023-06-22T04:44:07;3.00;3.00;2.00
76784;PMS7003;66893;44.316;0.092;2023-06-22T04:46:49;2.25;2.25;2.00
76784;PMS7003;66893;44.316;0.092;2023-06-22T04:49:28;3.50;2.00;1.75
76784;PMS7003;66893;44.316;0.092;2023-06-22T04:52:01;5.50;3.00;2.25
76784;PMS7003;66893;44.316;0.092;2023-06-22T04:54:28;4.00;2.00;2.00
76784;PMS7003;66893;44.316;0.092;2023-06-22T04:56:54;2.25;2.25;2.00
76784;PMS7003;66893;44.316;0.092;2023-06-22T04:59:23;4.00;2.25;2.00
76784;PMS7003;66893;44.316;0.092;2023-06-22T05:01:53;5.00;3.25;3.00
76784;PMS7003;66893;44.316;0.092;2023-06-22T05:04:21;3.00;3.00;2.00
76784;PMS7003;66893;44.316;0.092;2023-06-22T05:06:48;3.25;3.25;2.50
76784;PMS7003;66893;44.316;0.092;2023-06-22T05:09:14;4.00;3.00;2.00
76784;PMS7003;66893;44.316;0.092;2023-06-22T05:11:39;2.75;2.75;2.25
76784;PMS7003;66893;44.316;0.092;2023-06-22T05:14:05;2.50;2.50;2.00
76784;PMS7003;66893;44.316;0.092;2023-06-22T05:16:30;1.75;1.75;1.25
76784;PMS7003;66893;44.316;0.092;2023-06-22T05:18:56;4.50;3.50;3.00
76784;PMS7003;66893;44.316;0.092;2023-06-22T05:21:22;4.00;3.50;3.00
76784;PMS7003;66893;44.316;0.092;2023-06-22T05:23:51;4.00;2.75;2.00
76784;PMS7003;66893;44.316;0.092;2023-06-22T05:26:21;2.00;2.00;2.00
76784;PMS7003;66893;44.316;0.092;2023-06-22T05:28:47;6.75;3.25;3.00
76784;PMS7003;66893;44.316;0.092;2023-06-22T05:31:13;5.00;4.25;3.00
76784;PMS7003;66893;44.316;0.092;2023-06-22T05:33:39;3.25;3.25;3.00
76784;PMS7003;66893;44.316;0.092;2023-06-22T05:36:05;5.25;3.25;3.00
76784;PMS7003;66893;44.316;0.092;2023-06-22T05:38:31;4.50;4.00;3.00
76784;PMS7003;66893;44.316;0.092;2023-06-22T05:40:57;4.00;2.00;2.00
76784;PMS7003;66893;44.316;0.092;2023-06-22T05:43:23;3.75;3.00;2.00
76784;PMS7003;66893;44.316;0.092;2023-06-22T05:45:48;5.00;3.25;3.00
76784;PMS7003;66893;44.316;0.092;2023-06-22T05:48:14;4.00;4.00;3.00
76784;PMS7003;66893;44.316;0.092;2023-06-22T05:50:39;4.00;3.00;2.00
76784;PMS7003;66893;44.316;0.092;2023-06-22T05:53:05;4.50;3.00;2.00
76784;PMS7003;66893;44.316;0.092;2023-06-22T05:55:32;3.00;3.00;3.00
76784;PMS7003;66893;44.316;0.092;2023-06-22T05:57:57;4.25;3.50;3.00
76784;PMS7003;66893;44.316;0.092;2023-06-22T06:00:23;3.00;3.00;2.25
76784;PMS7003;66893;44.316;0.092;2023-06-22T06:02:52;3.00;3.00;2.00
76784;PMS7003;66893;44.316;0.092;2023-06-22T06:05:17;5.75;3.50;3.00
76784;PMS7003;66893;44.316;0.092;2023-06-22T06:07:44;5.25;4.00;3.00
76784;PMS7003;66893;44.316;0.092;2023-06-22T06:10:10;6.00;4.00;4.00
76784;PMS7003;66893;44.316;0.092;2023-06-22T06:12:36;4.50;3.00;2.00
76784;PMS7003;66893;44.316;0.092;2023-06-22T06:15:02;4.50;4.00;3.50
76784;PMS7003;66893;44.316;0.092;2023-06-22T06:17:28;5.00;4.50;4.00
76784;PMS7003;66893;44.316;0.092;2023-06-22T06:19:54;8.50;5.00;4.25
76784;PMS7003;66893;44.316;0.092;2023-06-22T06:22:22;6.75;5.75;4.00
76784;PMS7003;66893;44.316;0.092;2023-06-22T06:24:48;4.50;4.00;3.00
76784;PMS7003;66893;44.316;0.092;2023-06-22T06:27:17;4.75;4.75;3.25
76784;PMS7003;66893;44.316;0.092;2023-06-22T06:29:45;4.50;4.50;4.00
76784;PMS7003;66893;44.316;0.092;2023-06-22T06:32:13;5.50;4.00;4.00
76784;PMS7003;66893;44.316;0.092;2023-06-22T06:34:38;3.50;3.25;3.00
76784;PMS7003;66893;44.316;0.092;2023-06-22T06:37:04;5.00;5.00;3.25
76784;PMS7003;66893;44.316;0.092;2023-06-22T06:39:29;6.75;6.00;5.00
76784;PMS7003;66893;44.316;0.092;2023-06-22T06:41:54;8.25;5.50;4.25
76784;PMS7003;66893;44.316;0.092;2023-06-22T06:44:23;6.25;4.75;3.25
76784;PMS7003;66893;44.316;0.092;2023-06-22T06:46:48;6.75;5.25;4.00
76784;PMS7003;66893;44.316;0.092;2023-06-22T06:49:21;7.75;6.75;5.25
76784;PMS7003;66893;44.316;0.092;2023-06-22T06:51:47;4.75;4.75;4.00
76784;PMS7003;66893;44.316;0.092;2023-06-22T06:54:12;4.00;4.00;3.00
76784;PMS7003;66893;44.316;0.092;2023-06-22T06:56:38;4.50;4.00;3.75
76784;PMS7003;66893;44.316;0.092;2023-06-22T06:59:03;4.00;4.00;3.00
76784;PMS7003;66893;44.316;0.092;2023-06-22T07:01:28;4.25;4.00;3.00
76784;PMS7003;66893;44.316;0.092;2023-06-22T07:03:58;5.00;3.75;3.00
76784;PMS7003;66893;44.316;0.092;2023-06-22T07:06:24;4.75;4.00;3.25
76784;PMS7003;66893;44.316;0.092;2023-06-22T07:08:54;5.00;3.25;3.00
76784;PMS7003;66893;44.316;0.092;2023-06-22T07:11:20;5.00;4.00;3.00
76784;PMS7003;66893;44.316;0.092;2023-06-22T07:13:45;5.25;5.25;4.25
76784;PMS7003;66893;44.316;0.092;2023-06-22T07:16:11;4.00;4.00;3.00
76784;PMS7003;66893;44.316;0.092;2023-06-22T07:18:36;4.00;3.00;2.75
76784;PMS7003;66893;44.316;0.092;2023-06-22T07:21:02;4.75;4.75;3.50
76784;PMS7003;66893;44.316;0.092;2023-06-22T07:23:31;7.00;4.00;3.00
76784;PMS7003;66893;44.316;0.092;2023-06-22T07:25:56;4.00;4.00;3.00
76784;PMS7003;66893;44.316;0.092;2023-06-22T07:28:22;3.00;3.00;2.75
76784;PMS7003;66893;44.316;0.092;2023-06-22T07:30:47;5.25;4.50;3.00
76784;PMS7003;66893;44.316;0.092;2023-06-22T07:33:13;4.25;4.25;3.00
76784;PMS7003;66893;44.316;0.092;2023-06-22T07:35:38;5.00;3.75;3.00
76784;PMS7003;66893;44.316;0.092;2023-06-22T07:38:04;5.25;4.00;2.50
76784;PMS7003;66893;44.316;0.092;2023-06-22T07:40:30;6.75;5.00;3.00
76784;PMS7003;66893;44.316;0.092;2023-06-22T07:42:55;3.00;3.00;2.00
76784;PMS7003;66893;44.316;0.092;2023-06-22T07:45:20;2.50;2.00;1.50
76784;PMS7003;66893;44.316;0.092;2023-06-22T07:47:46;4.50;4.00;3.50
76784;PMS7003;66893;44.316;0.092;2023-06-22T07:50:12;4.25;4.25;3.25
76784;PMS7003;66893;44.316;0.092;2023-06-22T07:52:37;4.50;4.50;3.00
76784;PMS7003;66893;44.316;0.092;2023-06-22T07:55:03;4.50;4.50;3.75
76784;PMS7003;66893;44.316;0.092;2023-06-22T07:57:29;3.00;3.00;2.50
76784;PMS7003;66893;44.316;0.092;2023-06-22T07:59:59;1.75;1.50;0.00
76784;PMS7003;66893;44.316;0.092;2023-06-22T08:02:25;6.50;4.00;4.00
76784;PMS7003;66893;44.316;0.092;2023-06-22T08:04:51;3.50;3.50;3.00
76784;PMS7003;66893;44.316;0.092;2023-06-22T08:07:17;6.25;5.75;4.00
76784;PMS7003;66893;44.316;0.092;2023-06-22T08:09:48;4.75;4.75;3.00
76784;PMS7003;66893;44.316;0.092;2023-06-22T08:12:14;4.00;4.00;3.00
76784;PMS7003;66893;44.316;0.092;2023-06-22T08:14:41;6.75;5.25;4.00
76784;PMS7003;66893;44.316;0.092;2023-06-22T08:17:09;5.50;5.00;3.75
76784;PMS7003;66893;44.316;0.092;2023-06-22T08:19:34;6.50;4.50;4.00
76784;PMS7003;66893;44.316;0.092;2023-06-22T08:22:00;4.25;4.25;3.75
76784;PMS7003;66893;44.316;0.092;2023-06-22T08:24:25;5.75;5.75;4.50
76784;PMS7003;66893;44.316;0.092;2023-06-22T08:26:55;7.00;5.75;4.25
76784;PMS7003;66893;44.316;0.092;2023-06-22T08:29:21;5.00;5.00;4.00
76784;PMS7003;66893;44.316;0.092;2023-06-22T08:31:46;8.75;6.25;5.25
76784;PMS7003;66893;44.316;0.092;2023-06-22T08:34:12;6.00;6.00;5.00
76784;PMS7003;66893;44.316;0.092;2023-06-22T08:36:37;6.25;6.00;5.00
76784;PMS7003;66893;44.316;0.092;2023-06-22T08:39:06;7.00;5.00;4.00
76784;PMS7003;66893;44.316;0.092;2023-06-22T08:41:31;13.50;11.25;9.00
76784;PMS7003;66893;44.316;0.092;2023-06-22T08:43:57;6.00;6.00;4.00
76784;PMS7003;66893;44.316;0.092;2023-06-22T08:46:23;7.25;7.25;5.25
76784;PMS7003;66893;44.316;0.092;2023-06-22T08:48:55;7.50;6.25;4.50
76784;PMS7003;66893;44.316;0.092;2023-06-22T08:51:24;8.00;5.50;5.00
76784;PMS7003;66893;44.316;0.092;2023-06-22T08:53:52;8.25;7.25;5.75
76784;PMS7003;66893;44.316;0.092;2023-06-22T08:56:18;5.00;4.50;4.00
76784;PMS7003;66893;44.316;0.092;2023-06-22T08:58:44;6.50;5.50;4.00
76784;PMS7003;66893;44.316;0.092;2023-06-22T09:01:09;9.50;7.00;5.25
76784;PMS7003;66893;44.316;0.092;2023-06-22T09:03:34;13.75;9.75;6.00
76784;PMS7003;66893;44.316;0.092;2023-06-22T09:06:02;6.00;6.00;5.00
76784;PMS7003;66893;44.316;0.092;2023-06-22T09:08:27;9.50;7.75;5.00
76784;PMS7003;66893;44.316;0.092;2023-06-22T09:10:52;8.00;8.00;5.50
76784;PMS7003;66893;44.316;0.092;2023-06-22T09:13:18;5.75;5.75;4.25
76784;PMS7003;66893;44.316;0.092;2023-06-22T09:15:43;5.25;5.25;4.25
76784;PMS7003;66893;44.316;0.092;2023-06-22T09:18:13;7.75;6.00;4.25
76784;PMS7003;66893;44.316;0.092;2023-06-22T09:20:39;8.00;5.75;4.25
76784;PMS7003;66893;44.316;0.092;2023-06-22T09:23:04;7.00;6.00;3.75
76784;PMS7003;66893;44.316;0.092;2023-06-22T09:25:30;6.00;5.25;4.00
76784;PMS7003;66893;44.316;0.092;2023-06-22T09:27:55;6.50;6.00;4.00
76784;PMS7003;66893;44.316;0.092;2023-06-22T09:30:21;5.25;5.25;3.25
76784;PMS7003;66893;44.316;0.092;2023-06-22T09:32:47;5.00;4.50;3.50
76784;PMS7003;66893;44.316;0.092;2023-06-22T09:35:12;5.25;4.50;3.25
76784;PMS7003;66893;44.316;0.092;2023-06-22T09:37:38;6.25;6.25;5.00
76784;PMS7003;66893;44.316;0.092;2023-06-22T09:40:05;6.00;6.00;5.00
76784;PMS7003;66893;44.316;0.092;2023-06-22T09:42:35;7.75;7.00;5.00
76784;PMS7003;66893;44.316;0.092;2023-06-22T09:45:00;7.00;5.25;4.00
76784;PMS7003;66893;44.316;0.092;2023-06-22T09:47:27;6.00;5.75;4.00
76784;PMS7003;66893;44.316;0.092;2023-06-22T09:49:54;7.00;4.00;3.00
76784;PMS7003;66893;44.316;0.092;2023-06-22T09:52:20;6.00;4.75;3.75
76784;PMS7003;66893;44.316;0.092;2023-06-22T09:54:46;5.00;5.00;4.00
76784;PMS7003;66893;44.316;0.092;2023-06-22T09:57:12;4.00;4.00;3.00
76784;PMS7003;66893;44.316;0.092;2023-06-22T09:59:37;8.00;6.00;4.50
76784;PMS7003;66893;44.316;0.092;2023-06-22T10:02:05;5.25;5.25;4.00
76784;PMS7003;66893;44.316;0.092;2023-06-22T10:04:31;8.50;5.25;4.75
76784;PMS7003;66893;44.316;0.092;2023-06-22T10:06:57;6.75;6.75;5.25
76784;PMS7003;66893;44.316;0.092;2023-06-22T10:09:22;4.50;4.50;4.00
76784;PMS7003;66893;44.316;0.092;2023-06-22T10:11:48;6.00;6.00;4.00
76784;PMS7003;66893;44.316;0.092;2023-06-22T10:14:13;6.75;6.25;5.00
76784;PMS7003;66893;44.316;0.092;2023-06-22T10:16:39;6.00;6.00;4.00
76784;PMS7003;66893;44.316;0.092;2023-06-22T10:19:06;9.00;6.00;5.50
76784;PMS7003;66893;44.316;0.092;2023-06-22T10:21:31;5.00;5.00;4.00
76784;PMS7003;66893;44.316;0.092;2023-06-22T10:23:57;8.00;6.50;5.00
76784;PMS7003;66893;44.316;0.092;2023-06-22T10:26:24;6.50;5.00;4.00
76784;PMS7003;66893;44.316;0.092;2023-06-22T10:28:50;6.50;6.00;4.75
76784;PMS7003;66893;44.316;0.092;2023-06-22T10:31:15;6.50;6.50;5.00
76784;PMS7003;66893;44.316;0.092;2023-06-22T10:33:41;7.25;5.00;4.50
76784;PMS7003;66893;44.316;0.092;2023-06-22T10:36:09;7.50;7.25;5.50
76784;PMS7003;66893;44.316;0.092;2023-06-22T10:38:35;7.50;7.00;5.00
76784;PMS7003;66893;44.316;0.092;2023-06-22T10:41:00;8.00;6.50;4.25
76784;PMS7003;66893;44.316;0.092;2023-06-22T10:43:26;7.25;7.25;5.00
76784;PMS7003;66893;44.316;0.092;2023-06-22T10:45:51;6.50;6.50;5.00
76784;PMS7003;66893;44.316;0.092;2023-06-22T10:48:17;8.50;7.75;5.25
76784;PMS7003;66893;44.316;0.092;2023-06-22T10:50:42;7.00;6.00;4.00
76784;PMS7003;66893;44.316;0.092;2023-06-22T10:53:08;9.00;6.25;4.00
76784;PMS7003;66893;44.316;0.092;2023-06-22T10:55:33;7.25;7.00;4.00
76784;PMS7003;66893;44.316;0.092;2023-06-22T10:57:59;6.75;5.25;3.50
76784;PMS7003;66893;44.316;0.092;2023-06-22T11:00:24;3.75;3.75;3.00
76784;PMS7003;66893;44.316;0.092;2023-06-22T11:02:49;5.00;5.00;4.00
76784;PMS7003;66893;44.316;0.092;2023-06-22T11:05:16;7.00;7.00;4.75
76784;PMS7003;66893;44.316;0.092;2023-06-22T11:07:42;7.25;5.75;4.25
76784;PMS7003;66893;44.316;0.092;2023-06-22T11:10:08;8.00;6.75;5.00
76784;PMS7003;66893;44.316;0.092;2023-06-22T11:12:34;9.00;7.00;5.00
76784;PMS7003;66893;44.316;0.092;2023-06-22T11:15:00;7.00;4.00;2.50
76784;PMS7003;66893;44.316;0.092;2023-06-22T11:17:26;6.50;5.00;5.00
76784;PMS7003;66893;44.316;0.092;2023-06-22T11:19:51;4.75;4.75;3.00
76784;PMS7003;66893;44.316;0.092;2023-06-22T11:22:16;6.75;6.00;5.00
76784;PMS7003;66893;44.316;0.092;2023-06-22T11:24:42;6.75;5.75;4.00
76784;PMS7003;66893;44.316;0.092;2023-06-22T11:27:07;5.50;5.25;5.00
76784;PMS7003;66893;44.316;0.092;2023-06-22T11:29:33;7.25;6.75;5.00
76784;PMS7003;66893;44.316;0.092;2023-06-22T11:31:58;6.25;6.00;5.00
76784;PMS7003;66893;44.316;0.092;2023-06-22T11:34:24;10.00;7.00;6.00
76784;PMS7003;66893;44.316;0.092;2023-06-22T11:36:52;6.25;6.00;4.50
76784;PMS7003;66893;44.316;0.092;2023-06-22T11:39:18;7.00;6.00;5.00
76784;PMS7003;66893;44.316;0.092;2023-06-22T11:41:43;5.25;4.50;4.00
76784;PMS7003;66893;44.316;0.092;2023-06-22T11:44:08;5.50;5.00;4.25
76784;PMS7003;66893;44.316;0.092;2023-06-22T11:46:34;5.75;5.75;4.75
76784;PMS7003;66893;44.316;0.092;2023-06-22T11:49:00;5.75;5.75;4.00
76784;PMS7003;66893;44.316;0.092;2023-06-22T11:51:25;8.00;7.00;4.50
76784;PMS7003;66893;44.316;0.092;2023-06-22T11:53:51;7.25;6.50;5.00
76784;PMS7003;66893;44.316;0.092;2023-06-22T11:56:16;7.25;6.75;4.00
76784;PMS7003;66893;44.316;0.092;2023-06-22T11:58:41;6.25;5.00;4.25
76784;PMS7003;66893;44.316;0.092;2023-06-22T12:01:07;6.25;5.00;3.25
76784;PMS7003;66893;44.316;0.092;2023-06-22T12:03:32;5.25;5.25;4.00
76784;PMS7003;66893;44.316;0.092;2023-06-22T12:05:58;5.00;4.50;4.00
76784;PMS7003;66893;44.316;0.092;2023-06-22T12:08:24;4.25;4.25;3.25
76784;PMS7003;66893;44.316;0.092;2023-06-22T12:10:50;7.50;7.00;4.00
76784;PMS7003;66893;44.316;0.092;2023-06-22T12:13:15;5.25;5.00;4.00
76784;PMS7003;66893;44.316;0.092;2023-06-22T12:15:41;6.25;5.75;4.25
76784;PMS7003;66893;44.316;0.092;2023-06-22T12:18:06;7.00;5.00;4.00
76784;PMS7003;66893;44.316;0.092;2023-06-22T12:20:33;5.50;3.75;3.00
76784;PMS7003;66893;44.316;0.092;2023-06-22T12:22:59;4.00;4.00;3.25
76784;PMS7003;66893;44.316;0.092;2023-06-22T12:25:24;6.00;4.75;4.00
76784;PMS7003;66893;44.316;0.092;2023-06-22T12:27:50;4.25;4.25;3.00
76784;PMS7003;66893;44.316;0.092;2023-06-22T12:30:16;4.50;4.25;3.50
76784;PMS7003;66893;44.316;0.092;2023-06-22T12:32:41;5.75;4.75;4.00
76784;PMS7003;66893;44.316;0.092;2023-06-22T12:35:07;5.00;5.00;4.00
76784;PMS7003;66893;44.316;0.092;2023-06-22T12:37:37;5.00;5.00;4.00
76784;PMS7003;66893;44.316;0.092;2023-06-22T12:40:02;5.25;4.00;3.75
76784;PMS7003;66893;44.316;0.092;2023-06-22T12:42:29;5.00;5.00;3.75
76784;PMS7003;66893;44.316;0.092;2023-06-22T12:44:54;5.75;5.75;4.75
76784;PMS7003;66893;44.316;0.092;2023-06-22T12:47:20;4.00;4.00;4.00
76784;PMS7003;66893;44.316;0.092;2023-06-22T12:49:48;5.00;3.50;3.00
76784;PMS7003;66893;44.316;0.092;2023-06-22T12:52:13;4.00;4.00;3.25
76784;PMS7003;66893;44.316;0.092;2023-06-22T12:54:39;5.00;5.00;4.00
76784;PMS7003;66893;44.316;0.092;2023-06-22T12:57:04;5.25;5.00;4.00
76784;PMS7003;66893;44.316;0.092;2023-06-22T12:59:30;3.00;3.00;3.00
76784;PMS7003;66893;44.316;0.092;2023-06-22T13:01:55;5.00;5.00;4.50
76784;PMS7003;66893;44.316;0.092;2023-06-22T13:04:21;4.75;4.25;4.00
76784;PMS7003;66893;44.316;0.092;2023-06-22T13:06:47;5.25;5.25;4.00
76784;PMS7003;66893;44.316;0.092;2023-06-22T13:09:13;6.25;6.00;4.25
76784;PMS7003;66893;44.316;0.092;2023-06-22T13:11:39;4.50;4.25;4.25
76784;PMS7003;66893;44.316;0.092;2023-06-22T13:14:05;6.00;6.00;4.00
76784;PMS7003;66893;44.316;0.092;2023-06-22T13:16:30;7.75;7.00;3.75
76784;PMS7003;66893;44.316;0.092;2023-06-22T13:18:56;5.00;5.00;3.00
76784;PMS7003;66893;44.316;0.092;2023-06-22T13:21:21;3.00;2.75;2.75
76784;PMS7003;66893;44.316;0.092;2023-06-22T13:23:47;5.50;5.25;4.25
76784;PMS7003;66893;44.316;0.092;2023-06-22T13:26:12;4.00;4.00;3.00
76784;PMS7003;66893;44.316;0.092;2023-06-22T13:28:38;5.50;5.50;4.00
76784;PMS7003;66893;44.316;0.092;2023-06-22T13:31:03;7.75;7.75;5.00
76784;PMS7003;66893;44.316;0.092;2023-06-22T13:33:29;9.50;7.00;5.00
76784;PMS7003;66893;44.316;0.092;2023-06-22T13:35:54;3.50;3.50;2.50
76784;PMS7003;66893;44.316;0.092;2023-06-22T13:38:20;6.00;6.00;4.00
76784;PMS7003;66893;44.316;0.092;2023-06-22T13:40:45;6.00;6.00;5.00
76784;PMS7003;66893;44.316;0.092;2023-06-22T13:43:12;6.50;5.00;5.00
76784;PMS7003;66893;44.316;0.092;2023-06-22T13:45:38;4.50;4.00;3.00
76784;PMS7003;66893;44.316;0.092;2023-06-22T13:48:03;5.00;4.00;2.75
76784;PMS7003;66893;44.316;0.092;2023-06-22T13:50:29;6.00;4.00;2.50
76784;PMS7003;66893;44.316;0.092;2023-06-22T13:52:55;6.00;5.50;3.00
76784;PMS7003;66893;44.316;0.092;2023-06-22T13:55:21;5.00;5.00;4.00
76784;PMS7003;66893;44.316;0.092;2023-06-22T13:57:48;6.00;6.00;5.00
76784;PMS7003;66893;44.316;0.092;2023-06-22T14:00:14;5.25;5.25;4.00
76784;PMS7003;66893;44.316;0.092;2023-06-22T14:02:40;4.50;4.50;4.00
76784;PMS7003;66893;44.316;0.092;2023-06-22T14:05:06;4.00;4.00;3.00
76784;PMS7003;66893;44.316;0.092;2023-06-22T14:07:32;4.00;4.00;3.00
76784;PMS7003;66893;44.316;0.092;2023-06-22T14:09:57;5.50;5.00;4.00
76784;PMS7003;66893;44.316;0.092;2023-06-22T14:12:23;6.25;5.75;4.50
76784;PMS7003;66893;44.316;0.092;2023-06-22T14:14:49;5.00;3.50;2.75
76784;PMS7003;66893;44.316;0.092;2023-06-22T14:17:15;7.50;4.75;3.75
76784;PMS7003;66893;44.316;0.092;2023-06-22T14:19:40;7.00;5.00;3.75